createdAt,value
2023-04-08T00:00:27.280Z,385.00
2023-04-08T00:01:27.282Z,387.00
2023-04-08T00:02:27.437Z,388.00
2023-04-08T00:03:27.438Z,386.00
2023-04-08T00:04:27.561Z,386.00
2023-04-08T00:05:27.409Z,386.00
2023-04-08T00:06:27.446Z,389.00
2023-04-08T00:07:27.523Z,388.00
2023-04-08T00:08:27.499Z,384.00
2023-04-08T00:09:27.543Z,385.00
2023-04-08T00:10:27.583Z,386.00
2023-04-08T00:11:27.621Z,386.00
2023-04-08T00:12:27.650Z,386.00
2023-04-08T00:13:27.672Z,384.00
2023-04-08T00:14:27.718Z,384.00
2023-04-08T00:15:27.728Z,384.00
2023-04-08T00:16:27.808Z,385.00
2023-04-08T00:17:27.815Z,384.00
2023-04-08T00:18:27.823Z,386.00
2023-04-08T00:19:27.868Z,386.00
2023-04-08T00:20:27.929Z,386.00
2023-04-08T00:21:27.954Z,386.00
2023-04-08T00:22:27.987Z,388.00
2023-04-08T00:23:28.020Z,390.00
2023-04-08T00:24:28.024Z,387.00
2023-04-08T00:25:28.076Z,387.00
2023-04-08T00:26:28.086Z,389.00
2023-04-08T00:27:28.099Z,387.00
2023-04-08T00:28:28.110Z,388.00
2023-04-08T00:29:28.103Z,389.00
2023-04-08T00:30:28.134Z,386.00
2023-04-08T00:31:28.192Z,389.00
2023-04-08T00:32:28.223Z,389.00
2023-04-08T00:33:28.200Z,388.00
2023-04-08T00:34:28.242Z,388.00
2023-04-08T00:35:28.319Z,390.00
2023-04-08T00:36:28.310Z,391.00
2023-04-08T00:37:28.358Z,393.00
2023-04-08T00:38:28.443Z,396.00
2023-04-08T00:39:28.478Z,397.00
2023-04-08T00:40:28.504Z,396.00
2023-04-08T00:41:28.585Z,395.00
2023-04-08T00:42:28.565Z,390.00
2023-04-08T00:43:28.593Z,389.00
2023-04-08T00:44:28.632Z,389.00
2023-04-08T00:45:28.665Z,388.00
2023-04-08T00:46:28.714Z,389.00
2023-04-08T00:47:28.791Z,390.00
2023-04-08T00:48:28.759Z,390.00
2023-04-08T00:49:28.777Z,389.00
2023-04-08T00:50:28.793Z,389.00
2023-04-08T00:51:28.845Z,389.00
2023-04-08T00:52:28.851Z,389.00
2023-04-08T00:53:28.903Z,387.00
2023-04-08T00:54:28.964Z,386.00
2023-04-08T00:55:29.184Z,386.00
2023-04-08T00:56:29.092Z,386.00
2023-04-08T00:57:29.129Z,384.00
2023-04-08T00:58:29.196Z,383.00
2023-04-08T00:59:29.240Z,383.00
2023-04-08T01:00:29.297Z,381.00
2023-04-08T01:01:29.421Z,381.00
2023-04-08T01:02:29.588Z,381.00
2023-04-08T01:03:29.547Z,380.00
2023-04-08T01:04:29.435Z,379.00
2023-04-08T01:05:29.448Z,382.00
2023-04-08T01:06:29.501Z,384.00
2023-04-08T01:07:29.513Z,385.00
2023-04-08T01:08:29.555Z,384.00
2023-04-08T01:09:29.601Z,383.00
2023-04-08T01:10:29.630Z,384.00
2023-04-08T01:11:29.649Z,387.00
2023-04-08T01:12:29.694Z,387.00
2023-04-08T01:13:29.705Z,386.00
2023-04-08T01:14:29.766Z,385.00
2023-04-08T01:15:29.787Z,388.00
2023-04-08T01:16:30.067Z,390.00
2023-04-08T01:17:29.861Z,388.00
2023-04-08T01:18:29.857Z,389.00
2023-04-08T01:19:29.863Z,390.00
2023-04-08T01:20:29.889Z,389.00
2023-04-08T01:21:29.861Z,389.00
2023-04-08T01:22:29.912Z,389.00
2023-04-08T01:23:29.876Z,387.00
2023-04-08T01:24:29.911Z,388.00
2023-04-08T01:25:29.896Z,390.00
2023-04-08T01:26:29.874Z,387.00
2023-04-08T01:27:29.891Z,386.00
2023-04-08T01:28:29.889Z,386.00
2023-04-08T01:29:29.897Z,386.00
2023-04-08T01:30:29.913Z,386.00
2023-04-08T01:31:30.003Z,385.00
2023-04-08T01:32:29.988Z,385.00
2023-04-08T01:33:29.921Z,384.00
2023-04-08T01:34:29.936Z,383.00
2023-04-08T01:35:29.960Z,385.00
2023-04-08T01:36:29.961Z,386.00
2023-04-08T01:37:29.976Z,386.00
2023-04-08T01:38:29.950Z,383.00
2023-04-08T01:39:29.955Z,382.00
2023-04-08T01:40:29.942Z,381.00
2023-04-08T01:41:29.953Z,381.00
2023-04-08T01:42:30.001Z,380.00
2023-04-08T01:43:30.000Z,382.00
2023-04-08T01:44:29.997Z,382.00
2023-04-08T01:45:30.049Z,381.00
2023-04-08T01:46:30.087Z,380.00
2023-04-08T01:47:30.124Z,379.00
2023-04-08T01:48:30.099Z,380.00
2023-04-08T01:49:30.154Z,381.00
2023-04-08T01:50:30.173Z,383.00
2023-04-08T01:51:30.294Z,385.00
2023-04-08T01:52:30.307Z,387.00
2023-04-08T01:53:30.334Z,387.00
2023-04-08T01:54:30.333Z,389.00
2023-04-08T01:55:30.345Z,391.00
2023-04-08T01:56:30.402Z,391.00
2023-04-08T01:57:30.410Z,392.00
2023-04-08T01:58:30.442Z,393.00
2023-04-08T01:59:30.486Z,393.00
2023-04-08T02:00:30.515Z,395.00
2023-04-08T02:01:30.717Z,393.00
2023-04-08T02:02:30.733Z,390.00
2023-04-08T02:03:31.001Z,389.00
2023-04-08T02:04:30.789Z,387.00
2023-04-08T02:05:30.685Z,387.00
2023-04-08T02:06:30.722Z,384.00
2023-04-08T02:07:30.756Z,381.00
2023-04-08T02:08:30.788Z,382.00
2023-04-08T02:09:30.827Z,383.00
2023-04-08T02:10:30.889Z,386.00
2023-04-08T02:11:30.945Z,387.00
2023-04-08T02:12:30.992Z,385.00
2023-04-08T02:13:31.015Z,384.00
2023-04-08T02:14:31.046Z,384.00
2023-04-08T02:15:31.099Z,385.00
2023-04-08T02:16:31.156Z,385.00
2023-04-08T02:17:31.195Z,385.00
2023-04-08T02:18:31.202Z,384.00
2023-04-08T02:19:31.203Z,383.00
2023-04-08T02:20:31.241Z,386.00
2023-04-08T02:21:31.271Z,390.00
2023-04-08T02:22:31.297Z,393.00
2023-04-08T02:23:31.315Z,393.00
2023-04-08T02:24:31.326Z,393.00
2023-04-08T02:25:31.383Z,394.00
2023-04-08T02:26:31.388Z,394.00
2023-04-08T02:27:31.410Z,393.00
2023-04-08T02:28:31.457Z,396.00
2023-04-08T02:29:31.486Z,396.00
2023-04-08T02:30:31.512Z,395.00
2023-04-08T02:31:31.651Z,395.00
2023-04-08T02:32:31.644Z,393.00
2023-04-08T02:33:31.634Z,393.00
2023-04-08T02:34:31.647Z,391.00
2023-04-08T02:35:31.708Z,388.00
2023-04-08T02:36:31.730Z,385.00
2023-04-08T02:37:31.759Z,386.00
2023-04-08T02:38:31.798Z,386.00
2023-04-08T02:39:31.870Z,387.00
2023-04-08T02:40:31.933Z,387.00
2023-04-08T02:41:31.978Z,387.00
2023-04-08T02:42:32.047Z,387.00
2023-04-08T02:43:32.045Z,388.00
2023-04-08T02:44:32.059Z,390.00
2023-04-08T02:45:32.142Z,390.00
2023-04-08T02:46:32.136Z,391.00
2023-04-08T02:47:32.218Z,392.00
2023-04-08T02:48:32.232Z,393.00
2023-04-08T02:49:32.295Z,396.00
2023-04-08T02:50:32.349Z,401.00
2023-04-08T02:51:32.425Z,403.00
2023-04-08T02:52:32.478Z,402.00
2023-04-08T02:53:32.597Z,400.00
2023-04-08T02:54:32.553Z,397.00
2023-04-08T02:55:32.576Z,396.00
2023-04-08T02:56:32.606Z,394.00
2023-04-08T02:57:32.635Z,394.00
2023-04-08T02:58:32.652Z,394.00
2023-04-08T02:59:32.665Z,393.00
2023-04-08T03:00:32.678Z,392.00
2023-04-08T03:01:32.772Z,391.00
2023-04-08T03:02:32.868Z,389.00
2023-04-08T03:03:32.816Z,389.00
2023-04-08T03:04:32.768Z,388.00
2023-04-08T03:05:32.824Z,388.00
2023-04-08T03:06:32.837Z,388.00
2023-04-08T03:07:32.841Z,390.00
2023-04-08T03:08:32.877Z,389.00
2023-04-08T03:09:32.906Z,390.00
2023-04-08T03:10:32.950Z,391.00
2023-04-08T03:11:33.002Z,392.00
2023-04-08T03:12:33.105Z,390.00
2023-04-08T03:13:33.068Z,387.00
2023-04-08T03:14:33.091Z,386.00
2023-04-08T03:15:33.113Z,384.00
2023-04-08T03:16:33.153Z,384.00
2023-04-08T03:17:33.231Z,387.00
2023-04-08T03:18:33.190Z,386.00
2023-04-08T03:19:33.239Z,388.00
2023-04-08T03:20:33.262Z,388.00
2023-04-08T03:21:33.271Z,388.00
2023-04-08T03:22:33.342Z,389.00
2023-04-08T03:23:33.331Z,388.00
2023-04-08T03:24:33.358Z,389.00
2023-04-08T03:25:33.398Z,390.00
2023-04-08T03:26:33.444Z,389.00
2023-04-08T03:27:33.467Z,387.00
2023-04-08T03:28:33.502Z,386.00
2023-04-08T03:29:33.515Z,383.00
2023-04-08T03:30:33.557Z,381.00
2023-04-08T03:31:33.611Z,383.00
2023-04-08T03:32:33.696Z,386.00
2023-04-08T03:33:33.635Z,385.00
2023-04-08T03:34:33.681Z,386.00
2023-04-08T03:35:33.757Z,386.00
2023-04-08T03:36:33.752Z,390.00
2023-04-08T03:37:33.793Z,393.00
2023-04-08T03:38:33.806Z,396.00
2023-04-08T03:39:33.866Z,399.00
2023-04-08T03:40:33.877Z,398.00
2023-04-08T03:41:33.927Z,397.00
2023-04-08T03:42:33.931Z,397.00
2023-04-08T03:43:35.210Z,396.00
2023-04-08T03:44:33.982Z,394.00
2023-04-08T03:45:33.960Z,392.00
2023-04-08T03:46:33.960Z,393.00
2023-04-08T03:47:33.987Z,393.00
2023-04-08T03:48:33.927Z,391.00
2023-04-08T03:49:33.936Z,393.00
2023-04-08T03:50:33.926Z,392.00
2023-04-08T03:51:33.933Z,394.00
2023-04-08T03:52:33.920Z,394.00
2023-04-08T03:53:33.894Z,399.00
2023-04-08T03:54:33.907Z,399.00
2023-04-08T03:55:33.889Z,397.00
2023-04-08T03:56:33.870Z,398.00
2023-04-08T03:57:33.886Z,398.00
2023-04-08T03:58:33.871Z,397.00
2023-04-08T03:59:33.871Z,397.00
2023-04-08T04:00:33.856Z,398.00
2023-04-08T04:01:33.858Z,397.00
2023-04-08T04:02:34.033Z,399.00
2023-04-08T04:03:33.973Z,400.00
2023-04-08T04:04:33.893Z,399.00
2023-04-08T04:05:33.834Z,400.00
2023-04-08T04:06:33.797Z,401.00
2023-04-08T04:07:33.791Z,401.00
2023-04-08T04:08:33.792Z,401.00
2023-04-08T04:09:33.774Z,402.00
2023-04-08T04:10:33.785Z,400.00
2023-04-08T04:11:33.779Z,399.00
2023-04-08T04:12:33.771Z,398.00
2023-04-08T04:13:33.755Z,396.00
2023-04-08T04:14:33.762Z,397.00
2023-04-08T04:15:33.751Z,397.00
2023-04-08T04:16:33.756Z,398.00
2023-04-08T04:17:33.738Z,397.00
2023-04-08T04:18:33.777Z,398.00
2023-04-08T04:19:33.737Z,397.00
2023-04-08T04:20:33.715Z,399.00
2023-04-08T04:21:33.709Z,396.00
2023-04-08T04:22:33.733Z,397.00
2023-04-08T04:23:33.694Z,397.00
2023-04-08T04:24:33.756Z,397.00
2023-04-08T04:25:33.666Z,397.00
2023-04-08T04:26:33.660Z,397.00
2023-04-08T04:27:33.677Z,399.00
2023-04-08T04:28:33.656Z,399.00
2023-04-08T04:29:33.641Z,401.00
2023-04-08T04:30:33.632Z,402.00
2023-04-08T04:31:33.641Z,402.00
2023-04-08T04:32:33.640Z,400.00
2023-04-08T04:33:33.629Z,399.00
2023-04-08T04:34:33.601Z,403.00
2023-04-08T04:35:33.620Z,408.00
2023-04-08T04:36:33.588Z,413.00
2023-04-08T04:37:33.591Z,413.00
2023-04-08T04:38:33.588Z,414.00
2023-04-08T04:39:33.592Z,412.00
2023-04-08T04:40:33.581Z,410.00
2023-04-08T04:41:33.552Z,406.00
2023-04-08T04:42:33.567Z,404.00
2023-04-08T04:43:33.539Z,405.00
2023-04-08T04:44:33.528Z,406.00
2023-04-08T04:45:33.517Z,405.00
2023-04-08T04:46:33.648Z,407.00
2023-04-08T04:47:33.517Z,409.00
2023-04-08T04:48:33.499Z,408.00
2023-04-08T04:49:33.485Z,407.00
2023-04-08T04:50:33.486Z,405.00
2023-04-08T04:51:33.489Z,404.00
2023-04-08T04:52:33.465Z,400.00
2023-04-08T04:53:33.477Z,400.00
2023-04-08T04:54:33.461Z,399.00
2023-04-08T04:55:33.460Z,399.00
2023-04-08T04:56:33.465Z,399.00
2023-04-08T04:57:33.450Z,398.00
2023-04-08T04:58:33.448Z,398.00
2023-04-08T04:59:33.425Z,396.00
2023-04-08T05:00:33.419Z,398.00
2023-04-08T05:01:33.477Z,399.00
2023-04-08T05:02:33.540Z,402.00
2023-04-08T05:03:33.439Z,404.00
2023-04-08T05:04:33.420Z,405.00
2023-04-08T05:05:33.403Z,403.00
2023-04-08T05:06:33.378Z,396.00
2023-04-08T05:07:33.384Z,394.00
2023-04-08T05:08:33.368Z,393.00
2023-04-08T05:09:33.370Z,388.00
2023-04-08T05:10:33.362Z,387.00
2023-04-08T05:11:33.367Z,388.00
2023-04-08T05:12:33.331Z,389.00
2023-04-08T05:13:33.332Z,390.00
2023-04-08T05:14:33.335Z,390.00
2023-04-08T05:15:33.308Z,391.00
2023-04-08T05:16:33.409Z,391.00
2023-04-08T05:17:33.345Z,391.00
2023-04-08T05:18:33.303Z,393.00
2023-04-08T05:19:33.301Z,395.00
2023-04-08T05:20:33.274Z,400.00
2023-04-08T05:21:33.267Z,400.00
2023-04-08T05:22:33.261Z,399.00
2023-04-08T05:23:33.285Z,394.00
2023-04-08T05:24:33.256Z,393.00
2023-04-08T05:25:33.259Z,393.00
2023-04-08T05:26:33.234Z,389.00
2023-04-08T05:27:33.238Z,388.00
2023-04-08T05:28:33.232Z,384.00
2023-04-08T05:29:33.229Z,384.00
2023-04-08T05:30:33.216Z,384.00
2023-04-08T05:31:33.263Z,384.00
2023-04-08T05:32:33.273Z,387.00
2023-04-08T05:33:33.257Z,389.00
2023-04-08T05:34:33.236Z,389.00
2023-04-08T05:35:33.314Z,390.00
2023-04-08T05:36:33.286Z,392.00
2023-04-08T05:37:33.314Z,395.00
2023-04-08T05:38:33.356Z,395.00
2023-04-08T05:39:33.365Z,395.00
2023-04-08T05:40:33.367Z,398.00
2023-04-08T05:41:33.397Z,399.00
2023-04-08T05:42:33.425Z,400.00
2023-04-08T05:43:33.450Z,400.00
2023-04-08T05:44:33.481Z,398.00
2023-04-08T05:45:33.537Z,398.00
2023-04-08T05:46:33.574Z,400.00
2023-04-08T05:47:33.592Z,399.00
2023-04-08T05:48:33.647Z,399.00
2023-04-08T05:49:33.683Z,397.00
2023-04-08T05:50:33.721Z,401.00
2023-04-08T05:51:33.767Z,459.00
2023-04-08T05:52:33.819Z,441.00
2023-04-08T05:53:33.874Z,431.00
2023-04-08T05:54:33.899Z,425.00
2023-04-08T05:55:33.941Z,418.00
2023-04-08T05:56:33.960Z,412.00
2023-04-08T05:57:34.002Z,409.00
2023-04-08T05:58:34.031Z,404.00
2023-04-08T05:59:34.032Z,402.00
2023-04-08T06:00:34.057Z,402.00
2023-04-08T06:01:34.154Z,402.00
2023-04-08T06:02:34.140Z,401.00
2023-04-08T06:03:34.213Z,399.00
2023-04-08T06:04:34.180Z,398.00
2023-04-08T06:05:34.098Z,396.00
2023-04-08T06:06:34.084Z,394.00
2023-04-08T06:07:34.101Z,393.00
2023-04-08T06:08:34.087Z,392.00
2023-04-08T06:09:34.081Z,392.00
2023-04-08T06:10:34.074Z,391.00
2023-04-08T06:11:34.102Z,393.00
2023-04-08T06:12:34.100Z,394.00
2023-04-08T06:13:34.120Z,394.00
2023-04-08T06:14:34.123Z,396.00
2023-04-08T06:15:34.131Z,396.00
2023-04-08T06:16:34.157Z,397.00
2023-04-08T06:17:34.176Z,397.00
2023-04-08T06:18:34.177Z,399.00
2023-04-08T06:19:34.181Z,399.00
2023-04-08T06:20:34.208Z,399.00
2023-04-08T06:21:34.198Z,399.00
2023-04-08T06:22:34.202Z,397.00
2023-04-08T06:23:34.206Z,400.00
2023-04-08T06:24:34.217Z,402.00
2023-04-08T06:25:34.272Z,401.00
2023-04-08T06:26:34.244Z,399.00
2023-04-08T06:27:34.236Z,398.00
2023-04-08T06:28:34.251Z,396.00
2023-04-08T06:29:34.267Z,394.00
2023-04-08T06:30:34.288Z,392.00
2023-04-08T06:31:34.363Z,389.00
2023-04-08T06:32:34.355Z,389.00
2023-04-08T06:33:34.373Z,389.00
2023-04-08T06:34:34.382Z,387.00
2023-04-08T06:35:34.411Z,390.00
2023-04-08T06:36:34.438Z,392.00
2023-04-08T06:37:34.455Z,392.00
2023-04-08T06:38:34.507Z,392.00
2023-04-08T06:39:34.687Z,392.00
2023-04-08T06:40:34.567Z,393.00
2023-04-08T06:41:34.607Z,392.00
2023-04-08T06:42:34.653Z,392.00
2023-04-08T06:43:34.673Z,392.00
2023-04-08T06:44:34.697Z,393.00
2023-04-08T06:45:34.761Z,392.00
2023-04-08T06:46:34.750Z,394.00
2023-04-08T06:47:34.825Z,396.00
2023-04-08T06:48:34.825Z,398.00
2023-04-08T06:49:34.868Z,398.00
2023-04-08T06:50:34.875Z,398.00
2023-04-08T06:51:34.926Z,396.00
2023-04-08T06:52:34.928Z,397.00
2023-04-08T06:53:34.991Z,398.00
2023-04-08T06:54:34.981Z,399.00
2023-04-08T06:55:35.047Z,399.00
2023-04-08T06:56:35.088Z,399.00
2023-04-08T06:57:35.160Z,398.00
2023-04-08T06:58:35.198Z,397.00
2023-04-08T06:59:35.288Z,397.00
2023-04-08T07:00:35.304Z,395.00
2023-04-08T07:01:35.509Z,395.00
2023-04-08T07:02:35.551Z,398.00
2023-04-08T07:03:35.546Z,399.00
2023-04-08T07:04:35.534Z,398.00
2023-04-08T07:05:35.619Z,396.00
2023-04-08T07:06:35.675Z,395.00
2023-04-08T07:07:35.682Z,392.00
2023-04-08T07:08:36.041Z,393.00
2023-04-08T07:09:35.783Z,391.00
2023-04-08T07:10:35.858Z,391.00
2023-04-08T07:11:35.915Z,390.00
2023-04-08T07:12:35.977Z,392.00
2023-04-08T07:13:36.027Z,394.00
2023-04-08T07:14:36.126Z,395.00
2023-04-08T07:15:36.138Z,392.00
2023-04-08T07:16:36.212Z,394.00
2023-04-08T07:17:36.229Z,399.00
2023-04-08T07:18:36.228Z,402.00
2023-04-08T07:19:36.265Z,405.00
2023-04-08T07:20:36.304Z,406.00
2023-04-08T07:21:36.304Z,405.00
2023-04-08T07:22:36.348Z,404.00
2023-04-08T07:23:36.385Z,404.00
2023-04-08T07:24:36.414Z,400.00
2023-04-08T07:25:36.450Z,398.00
2023-04-08T07:26:36.469Z,397.00
2023-04-08T07:27:36.520Z,397.00
2023-04-08T07:28:36.492Z,395.00
2023-04-08T07:29:36.493Z,394.00
2023-04-08T07:30:36.532Z,394.00
2023-04-08T07:31:36.520Z,393.00
2023-04-08T07:32:36.566Z,393.00
2023-04-08T07:33:36.551Z,394.00
2023-04-08T07:34:36.571Z,399.00
2023-04-08T07:35:36.613Z,400.00
2023-04-08T07:36:36.588Z,399.00
2023-04-08T07:37:36.664Z,397.00
2023-04-08T07:38:36.639Z,396.00
2023-04-08T07:39:36.642Z,395.00
2023-04-08T07:40:36.624Z,395.00
2023-04-08T07:41:36.595Z,393.00
2023-04-08T07:42:36.989Z,392.00
2023-04-08T07:43:36.615Z,392.00
2023-04-08T07:44:36.642Z,392.00
2023-04-08T07:45:36.642Z,391.00
2023-04-08T07:46:36.714Z,392.00
2023-04-08T07:47:36.684Z,396.00
2023-04-08T07:48:36.692Z,395.00
2023-04-08T07:49:36.678Z,397.00
2023-04-08T07:50:36.700Z,399.00
2023-04-08T07:51:37.706Z,399.00
2023-04-08T07:52:36.670Z,400.00
2023-04-08T07:53:36.676Z,400.00
2023-04-08T07:54:36.677Z,401.00
2023-04-08T07:55:36.665Z,400.00
2023-04-08T07:56:36.660Z,399.00
2023-04-08T07:57:36.665Z,399.00
2023-04-08T07:58:36.640Z,398.00
2023-04-08T07:59:36.612Z,398.00
2023-04-08T08:00:36.616Z,397.00
2023-04-08T08:01:36.624Z,399.00
2023-04-08T08:02:36.662Z,400.00
2023-04-08T08:03:36.745Z,400.00
2023-04-08T08:04:36.751Z,399.00
2023-04-08T08:05:36.575Z,395.00
2023-04-08T08:06:36.587Z,396.00
2023-04-08T08:07:36.586Z,395.00
2023-04-08T08:08:36.584Z,396.00
2023-04-08T08:09:36.577Z,394.00
2023-04-08T08:10:36.562Z,395.00
2023-04-08T08:11:36.546Z,396.00
2023-04-08T08:12:36.567Z,396.00
2023-04-08T08:13:36.537Z,395.00
2023-04-08T08:14:36.523Z,397.00
2023-04-08T08:15:36.583Z,396.00
2023-04-08T08:16:36.628Z,396.00
2023-04-08T08:17:36.534Z,398.00
2023-04-08T08:18:36.502Z,397.00
2023-04-08T08:19:36.492Z,398.00
2023-04-08T08:20:36.480Z,399.00
2023-04-08T08:21:36.466Z,397.00
2023-04-08T08:22:41.829Z,396.00
2023-04-08T08:23:37.454Z,396.00
2023-04-08T08:24:36.462Z,397.00
2023-04-08T08:25:36.438Z,406.00
2023-04-08T08:26:36.457Z,409.00
2023-04-08T08:27:36.429Z,406.00
2023-04-08T08:28:36.423Z,404.00
2023-04-08T08:29:36.420Z,401.00
2023-04-08T08:30:36.420Z,402.00
2023-04-08T08:31:36.511Z,400.00
2023-04-08T08:32:36.598Z,397.00
2023-04-08T08:33:36.627Z,397.00
2023-04-08T08:34:36.661Z,397.00
2023-04-08T08:35:36.754Z,397.00
2023-04-08T08:36:36.821Z,396.00
2023-04-08T08:37:36.860Z,395.00
2023-04-08T08:38:36.900Z,395.00
2023-04-08T08:39:36.971Z,397.00
2023-04-08T08:40:37.003Z,399.00
2023-04-08T08:41:37.080Z,396.00
2023-04-08T08:42:37.123Z,397.00
2023-04-08T08:43:37.182Z,399.00
2023-04-08T08:44:37.213Z,401.00
2023-04-08T08:45:37.263Z,401.00
2023-04-08T08:46:37.372Z,400.00
2023-04-08T08:47:37.334Z,399.00
2023-04-08T08:48:37.323Z,398.00
2023-04-08T08:49:37.355Z,398.00
2023-04-08T08:50:37.358Z,397.00
2023-04-08T08:51:37.367Z,395.00
2023-04-08T08:52:37.383Z,399.00
2023-04-08T08:53:37.418Z,400.00
2023-04-08T08:54:37.445Z,401.00
2023-04-08T08:56:37.471Z,401.00
2023-04-08T08:57:37.454Z,400.00
2023-04-08T08:58:37.502Z,398.00
2023-04-08T08:59:37.449Z,398.00
2023-04-08T09:00:37.436Z,397.00
2023-04-08T09:01:37.615Z,395.00
2023-04-08T09:02:37.584Z,398.00
2023-04-08T09:03:37.578Z,395.00
2023-04-08T09:04:37.480Z,396.00
2023-04-08T09:05:37.533Z,395.00
2023-04-08T09:06:37.404Z,394.00
2023-04-08T09:07:37.384Z,396.00
2023-04-08T09:08:37.365Z,398.00
2023-04-08T09:09:37.359Z,398.00
2023-04-08T09:10:37.351Z,398.00
2023-04-08T09:11:37.349Z,397.00
2023-04-08T09:12:37.358Z,397.00
2023-04-08T09:13:37.344Z,394.00
2023-04-08T09:14:37.345Z,395.00
2023-04-08T09:15:37.334Z,397.00
2023-04-08T09:16:37.430Z,400.00
2023-04-08T09:17:37.511Z,399.00
2023-04-08T09:18:37.528Z,400.00
2023-04-08T09:19:37.552Z,398.00
2023-04-08T09:20:37.599Z,401.00
2023-04-08T09:21:37.648Z,401.00
2023-04-08T09:22:37.673Z,397.00
2023-04-08T09:23:37.821Z,397.00
2023-04-08T09:24:37.793Z,398.00
2023-04-08T09:25:37.840Z,399.00
2023-04-08T09:26:37.883Z,399.00
2023-04-08T09:27:37.937Z,399.00
2023-04-08T09:28:37.976Z,397.00
2023-04-08T09:29:39.826Z,392.00
2023-04-08T09:30:38.042Z,392.00
2023-04-08T09:31:38.137Z,395.00
2023-04-08T09:32:38.182Z,395.00
2023-04-08T09:33:38.161Z,392.00
2023-04-08T09:34:38.187Z,389.00
2023-04-08T09:35:38.289Z,394.00
2023-04-08T09:36:38.254Z,397.00
2023-04-08T09:37:38.299Z,401.00
2023-04-08T09:38:38.343Z,403.00
2023-04-08T09:39:38.392Z,404.00
2023-04-08T09:40:38.389Z,406.00
2023-04-08T09:41:38.424Z,407.00
2023-04-08T09:42:38.436Z,409.00
2023-04-08T09:43:38.470Z,409.00
2023-04-08T09:44:38.522Z,411.00
2023-04-08T09:45:38.567Z,407.00
2023-04-08T09:46:38.557Z,404.00
2023-04-08T09:47:38.630Z,405.00
2023-04-08T09:48:38.639Z,406.00
2023-04-08T09:49:38.673Z,410.00
2023-04-08T09:50:38.688Z,410.00
2023-04-08T09:51:38.746Z,410.00
2023-04-08T09:52:38.784Z,411.00
2023-04-08T09:53:38.833Z,412.00
2023-04-08T09:54:38.856Z,412.00
2023-04-08T09:55:38.867Z,412.00
2023-04-08T09:56:38.890Z,411.00
2023-04-08T09:57:38.911Z,409.00
2023-04-08T09:58:38.936Z,411.00
2023-04-08T09:59:38.948Z,408.00
2023-04-08T10:00:39.011Z,406.00
2023-04-08T10:01:39.045Z,409.00
2023-04-08T10:02:39.038Z,414.00
2023-04-08T10:03:39.049Z,400.00
2023-04-08T10:04:39.024Z,405.00
2023-04-08T10:05:39.004Z,408.00
2023-04-08T10:06:38.996Z,409.00
2023-04-08T10:07:39.009Z,409.00
2023-04-08T10:08:39.007Z,410.00
2023-04-08T10:09:39.034Z,410.00
2023-04-08T10:10:39.021Z,407.00
2023-04-08T10:11:39.038Z,407.00
2023-04-08T10:12:39.024Z,407.00
2023-04-08T10:13:39.046Z,404.00
2023-04-08T10:14:39.051Z,405.00
2023-04-08T10:15:39.093Z,404.00
2023-04-08T10:16:39.214Z,401.00
2023-04-08T10:17:39.220Z,401.00
2023-04-08T10:18:39.257Z,403.00
2023-04-08T10:19:39.271Z,378.00
2023-04-08T10:20:39.313Z,389.00
2023-04-08T10:21:39.325Z,373.00
2023-04-08T10:22:39.389Z,385.00
2023-04-08T10:23:39.424Z,375.00
2023-04-08T10:24:39.464Z,381.00
2023-04-08T10:25:39.471Z,382.00
2023-04-08T10:26:39.494Z,380.00
2023-04-08T10:27:39.504Z,396.00
2023-04-08T10:28:39.531Z,380.00
2023-04-08T10:29:39.530Z,384.00
2023-04-08T10:30:39.558Z,386.00
2023-04-08T10:31:39.679Z,389.00
2023-04-08T10:32:39.696Z,383.00
2023-04-08T10:33:41.003Z,381.00
2023-04-08T10:34:39.789Z,380.00
2023-04-08T10:35:39.942Z,383.00
2023-04-08T10:36:39.868Z,388.00
2023-04-08T10:37:39.904Z,384.00
2023-04-08T10:38:39.984Z,385.00
2023-04-08T10:39:39.941Z,378.00
2023-04-08T10:40:39.957Z,383.00
2023-04-08T10:41:40.017Z,389.00
2023-04-08T10:42:40.021Z,379.00
2023-04-08T10:43:40.086Z,388.00
2023-04-08T10:44:40.154Z,384.00
2023-04-08T10:45:40.247Z,372.00
2023-04-08T10:46:40.276Z,376.00
2023-04-08T10:47:40.368Z,381.00
2023-04-08T10:48:40.337Z,373.00
2023-04-08T10:49:40.377Z,375.00
2023-04-08T10:50:40.390Z,371.00
2023-04-08T10:51:40.421Z,373.00
2023-04-08T10:52:40.439Z,371.00
2023-04-08T10:53:40.456Z,376.00
2023-04-08T10:54:40.500Z,379.00
2023-04-08T10:55:40.516Z,385.00
2023-04-08T10:56:40.505Z,378.00
2023-04-08T10:57:40.560Z,372.00
2023-04-08T10:58:40.548Z,377.00
2023-04-08T10:59:40.602Z,366.00
2023-04-08T11:00:40.616Z,394.00
2023-04-08T11:01:40.684Z,377.00
2023-04-08T11:02:40.742Z,380.00
2023-04-08T11:03:40.795Z,375.00
2023-04-08T11:04:40.853Z,375.00
2023-04-08T11:05:40.835Z,378.00
2023-04-08T11:06:40.865Z,378.00
2023-04-08T11:07:40.871Z,381.00
2023-04-08T11:08:40.911Z,371.00
2023-04-08T11:09:40.923Z,383.00
2023-04-08T11:10:40.959Z,368.00
2023-04-08T11:11:40.988Z,377.00
2023-04-08T11:12:41.012Z,380.00
2023-04-08T11:13:42.931Z,377.00
2023-04-08T11:14:41.995Z,375.00
2023-04-08T11:15:41.027Z,377.00
2023-04-08T11:16:41.023Z,379.00
2023-04-08T11:17:41.050Z,377.00
2023-04-08T11:18:40.976Z,375.00
2023-04-08T11:19:40.985Z,381.00
2023-04-08T11:20:40.979Z,381.00
2023-04-08T11:21:40.972Z,382.00
2023-04-08T11:22:40.971Z,384.00
2023-04-08T11:23:40.958Z,384.00
2023-04-08T11:24:40.957Z,386.00
2023-04-08T11:25:40.973Z,385.00
2023-04-08T11:26:40.979Z,375.00
2023-04-08T11:27:40.989Z,387.00
2023-04-08T11:28:40.984Z,388.00
2023-04-08T11:29:41.015Z,378.00
2023-04-08T11:30:41.068Z,382.00
2023-04-08T11:31:41.124Z,384.00
2023-04-08T11:32:41.164Z,373.00
2023-04-08T11:33:41.095Z,374.00
2023-04-08T11:34:41.134Z,379.00
2023-04-08T11:35:41.179Z,376.00
2023-04-08T11:36:41.232Z,384.00
2023-04-08T11:37:41.274Z,379.00
2023-04-08T11:38:41.322Z,387.00
2023-04-08T11:39:41.384Z,389.00
2023-04-08T11:40:41.415Z,384.00
2023-04-08T11:41:41.484Z,386.00
2023-04-08T11:42:41.525Z,385.00
2023-04-08T11:43:41.582Z,382.00
2023-04-08T11:44:41.602Z,381.00
2023-04-08T11:45:41.657Z,380.00
2023-04-08T11:46:41.720Z,380.00
2023-04-08T11:47:41.759Z,382.00
2023-04-08T11:48:41.757Z,377.00
2023-04-08T11:49:41.774Z,360.00
2023-04-08T11:50:41.807Z,375.00
2023-04-08T11:51:41.848Z,378.00
2023-04-08T11:52:41.895Z,378.00
2023-04-08T11:53:41.953Z,379.00
2023-04-08T11:54:41.963Z,382.00
2023-04-08T11:55:41.981Z,374.00
2023-04-08T11:56:42.014Z,375.00
2023-04-08T11:57:42.025Z,382.00
2023-04-08T11:58:42.042Z,382.00
2023-04-08T11:59:42.059Z,354.00
2023-04-08T12:00:42.106Z,373.00
2023-04-08T12:01:42.155Z,378.00
2023-04-08T12:02:42.203Z,381.00
2023-04-08T12:03:42.276Z,384.00
2023-04-08T12:04:42.275Z,389.00
2023-04-08T12:05:42.202Z,390.00
2023-04-08T12:06:42.197Z,389.00
2023-04-08T12:07:42.236Z,389.00
2023-04-08T12:08:42.287Z,394.00
2023-04-08T12:09:42.322Z,393.00
2023-04-08T12:10:42.330Z,395.00
2023-04-08T12:11:42.379Z,374.00
2023-04-08T12:12:42.410Z,369.00
2023-04-08T12:13:42.464Z,391.00
2023-04-08T12:14:42.518Z,386.00
2023-04-08T12:15:42.675Z,390.00
2023-04-08T12:16:42.696Z,387.00
2023-04-08T12:17:42.619Z,395.00
2023-04-08T12:18:42.607Z,392.00
2023-04-08T12:19:42.674Z,392.00
2023-04-08T12:20:42.709Z,401.00
2023-04-08T12:21:42.765Z,397.00
2023-04-08T12:22:42.792Z,388.00
2023-04-08T12:23:42.814Z,388.00
2023-04-08T12:24:42.806Z,390.00
2023-04-08T12:25:42.819Z,399.00
2023-04-08T12:26:42.867Z,389.00
2023-04-08T12:27:42.859Z,388.00
2023-04-08T12:28:42.872Z,386.00
2023-04-08T12:29:42.865Z,384.00